createdAt,value
2022-09-20T00:01:21.864Z,0.85
2022-09-20T00:03:51.709Z,0.80
2022-09-20T00:06:21.987Z,1.20
2022-09-20T00:08:50.678Z,0.75
2022-09-20T00:11:20.815Z,1.35
2022-09-20T00:13:52.410Z,1.25
2022-09-20T00:16:23.335Z,1.17
2022-09-20T00:18:52.587Z,1.13
2022-09-20T00:21:23.022Z,1.10
2022-09-20T00:23:52.545Z,1.20
2022-09-20T00:26:22.070Z,1.40
2022-09-20T00:28:51.963Z,1.20
2022-09-20T00:31:20.703Z,1.20
2022-09-20T00:34:06.387Z,1.73
2022-09-20T00:36:34.633Z,1.50
2022-09-20T00:39:03.914Z,1.80
2022-09-20T00:41:33.011Z,2.90
2022-09-20T00:44:04.068Z,3.47
2022-09-20T00:46:37.194Z,2.50
2022-09-20T00:49:13.379Z,1.75
2022-09-20T00:51:44.612Z,1.67
2022-09-20T00:54:20.152Z,1.40
2022-09-20T00:56:49.648Z,1.88
2022-09-20T00:59:23.592Z,1.40
2022-09-20T01:01:56.925Z,1.40
2022-09-20T01:06:57.779Z,1.80
2022-09-20T01:09:25.959Z,1.40
2022-09-20T01:11:56.473Z,1.58
2022-09-20T01:14:27.403Z,1.65
2022-09-20T01:16:58.753Z,1.38
2022-09-20T01:19:39.207Z,1.33
2022-09-20T01:22:17.565Z,1.27
2022-09-20T01:24:52.155Z,1.35
2022-09-20T01:27:27.518Z,1.73
2022-09-20T01:30:07.754Z,1.75
2022-09-20T01:32:49.944Z,1.23
2022-09-20T01:35:21.394Z,1.60
2022-09-20T01:38:03.948Z,1.85
2022-09-20T01:40:40.750Z,1.65
2022-09-20T01:43:17.863Z,2.10
2022-09-20T01:45:50.174Z,1.95
2022-09-20T01:48:28.544Z,1.88
2022-09-20T01:51:37.910Z,1.80
2022-09-20T01:54:36.503Z,1.70
2022-09-20T01:57:52.006Z,2.10
2022-09-20T02:00:23.316Z,1.60
2022-09-20T02:03:26.402Z,1.92
2022-09-20T02:06:21.179Z,2.08
2022-09-20T02:09:24.184Z,1.90
2022-09-20T02:12:18.012Z,2.13
2022-09-20T02:17:28.920Z,2.03
2022-09-20T02:20:14.230Z,1.92
2022-09-20T02:23:13.035Z,2.38
2022-09-20T02:25:54.279Z,2.10
2022-09-20T02:28:32.203Z,2.38
2022-09-20T02:31:11.084Z,2.13
2022-09-20T02:34:01.575Z,2.42
2022-09-20T02:36:41.816Z,2.35
2022-09-20T02:39:16.366Z,2.00
2022-09-20T02:41:58.339Z,2.55
2022-09-20T02:44:49.703Z,2.10
2022-09-20T02:47:26.537Z,2.28
2022-09-20T02:50:04.296Z,2.50
2022-09-20T02:52:41.890Z,2.38
2022-09-20T02:55:15.935Z,1.83
2022-09-20T02:57:51.897Z,2.10
2022-09-20T03:00:25.205Z,2.35
2022-09-20T03:05:37.478Z,1.98
2022-09-20T03:08:32.995Z,1.83
2022-09-20T03:11:12.002Z,2.20
2022-09-20T03:13:55.639Z,2.22
2022-09-20T03:19:09.294Z,2.13
2022-09-20T03:22:01.037Z,2.05
2022-09-20T03:24:43.187Z,2.08
2022-09-20T03:27:20.516Z,2.42
2022-09-20T03:29:59.930Z,2.40
2022-09-20T03:32:45.083Z,2.35
2022-09-20T03:35:25.680Z,2.80
2022-09-20T03:38:08.349Z,2.60
2022-09-20T03:41:13.222Z,2.87
2022-09-20T03:43:58.370Z,2.03
2022-09-20T03:46:28.930Z,3.28
2022-09-20T03:49:20.695Z,2.72
2022-09-20T03:52:02.234Z,2.75
2022-09-20T03:55:04.172Z,2.90
2022-09-20T03:57:48.221Z,3.50
2022-09-20T04:00:24.106Z,3.80
2022-09-20T04:03:28.056Z,3.75
2022-09-20T04:06:11.541Z,3.40
2022-09-20T04:08:57.566Z,3.45
2022-09-20T04:11:32.604Z,3.53
2022-09-20T04:14:11.656Z,4.15
2022-09-20T04:16:48.473Z,4.35
2022-09-20T04:19:24.508Z,4.30
2022-09-20T04:21:57.027Z,4.70
2022-09-20T04:24:36.389Z,4.60
2022-09-20T04:27:11.931Z,4.90
2022-09-20T04:29:48.680Z,4.13
2022-09-20T04:32:23.044Z,5.10
2022-09-20T04:35:20.001Z,4.93
2022-09-20T04:37:48.842Z,5.45
2022-09-20T04:40:32.710Z,5.53
2022-09-20T04:43:52.323Z,5.18
2022-09-20T04:47:00.046Z,4.80
2022-09-20T04:49:58.482Z,4.68
2022-09-20T04:52:55.336Z,4.45
2022-09-20T04:55:53.468Z,4.20
2022-09-20T04:58:42.389Z,4.82
2022-09-20T05:01:40.231Z,4.20
2022-09-20T05:04:54.616Z,5.18
2022-09-20T05:10:41.116Z,5.30
2022-09-20T05:13:22.010Z,8.63
2022-09-20T05:15:59.163Z,6.88
2022-09-20T05:18:55.379Z,4.93
2022-09-20T05:21:53.299Z,6.63
2022-09-20T05:24:43.275Z,4.80
2022-09-20T05:27:30.089Z,4.35
2022-09-20T05:30:06.691Z,4.97
2022-09-20T05:32:43.469Z,4.40
2022-09-20T05:35:20.032Z,4.10
2022-09-20T05:37:57.079Z,4.43
2022-09-20T05:40:34.415Z,5.32
2022-09-20T05:43:12.515Z,4.80
2022-09-20T05:46:03.358Z,6.07
2022-09-20T05:48:40.744Z,9.63
2022-09-20T05:51:22.712Z,5.68
2022-09-20T05:54:18.727Z,5.18
2022-09-20T05:56:51.800Z,5.78
2022-09-20T05:59:38.105Z,5.60
2022-09-20T06:02:26.610Z,5.63
2022-09-20T06:05:03.620Z,5.95
2022-09-20T06:07:52.213Z,5.72
2022-09-20T06:10:41.173Z,5.57
2022-09-20T06:13:25.226Z,6.15
2022-09-20T06:16:00.958Z,5.70
2022-09-20T06:18:34.198Z,6.38
2022-09-20T06:21:14.880Z,6.30
2022-09-20T06:23:42.998Z,6.22
2022-09-20T06:26:17.778Z,6.30
2022-09-20T06:28:54.206Z,6.70
2022-09-20T06:31:27.400Z,6.07
2022-09-20T06:33:59.179Z,6.55
2022-09-20T06:36:48.683Z,6.72
2022-09-20T06:39:44.431Z,5.45
2022-09-20T06:42:13.053Z,5.93
2022-09-20T06:44:43.233Z,5.85
2022-09-20T06:47:13.928Z,4.88
2022-09-20T06:49:42.747Z,5.40
2022-09-20T06:52:15.133Z,5.47
2022-09-20T06:54:45.763Z,5.43
2022-09-20T06:57:17.021Z,5.07
2022-09-20T06:59:45.648Z,5.25
2022-09-20T07:02:15.272Z,5.95
2022-09-20T07:04:44.611Z,5.53
2022-09-20T07:07:19.141Z,5.18
2022-09-20T07:09:47.566Z,5.95
2022-09-20T07:12:15.731Z,5.60
2022-09-20T07:14:44.313Z,5.80
2022-09-20T07:17:13.262Z,5.30
2022-09-20T07:19:43.085Z,5.20
2022-09-20T07:22:11.162Z,5.03
2022-09-20T07:24:40.548Z,4.18
2022-09-20T07:27:09.368Z,3.95
2022-09-20T07:29:37.463Z,4.47
2022-09-20T07:32:05.695Z,5.47
2022-09-20T07:34:33.863Z,4.35
2022-09-20T07:37:03.796Z,4.30
2022-09-20T07:39:31.836Z,4.07
2022-09-20T07:42:01.852Z,3.40
2022-09-20T07:44:29.935Z,3.28
2022-09-20T07:47:00.525Z,3.28
2022-09-20T07:49:30.776Z,3.30
2022-09-20T07:51:59.816Z,2.90
2022-09-20T07:54:29.536Z,2.42
2022-09-20T07:56:58.868Z,2.55
2022-09-20T07:59:27.019Z,2.63
2022-09-20T08:01:55.159Z,2.17
2022-09-20T08:04:23.310Z,2.50
2022-09-20T08:06:51.531Z,2.20
2022-09-20T08:09:20.274Z,2.45
2022-09-20T08:11:50.177Z,2.75
2022-09-20T08:14:19.799Z,3.03
2022-09-20T08:16:49.725Z,3.25
2022-09-20T08:19:19.540Z,3.63
2022-09-20T08:21:47.728Z,3.05
2022-09-20T08:24:16.446Z,2.45
2022-09-20T08:26:45.190Z,4.20
2022-09-20T08:29:15.266Z,4.13
2022-09-20T08:31:44.158Z,3.85
2022-09-20T08:34:15.099Z,3.67
2022-09-20T08:36:46.776Z,2.60
2022-09-20T08:42:14.195Z,3.05
2022-09-20T08:45:00.063Z,4.47
2022-09-20T08:47:31.147Z,4.03
2022-09-20T08:50:00.711Z,3.25
2022-09-20T08:52:36.221Z,3.40
2022-09-20T08:55:15.103Z,1.88
2022-09-20T08:57:43.523Z,2.00
2022-09-20T09:00:18.901Z,2.83
2022-09-20T09:02:47.699Z,1.55
2022-09-20T09:05:34.959Z,1.70
2022-09-20T09:08:08.731Z,1.95
2022-09-20T09:10:43.182Z,1.90
2022-09-20T09:13:19.562Z,1.80
2022-09-20T09:15:53.990Z,1.77
2022-09-20T09:18:22.071Z,1.63
2022-09-20T09:20:51.953Z,1.48
2022-09-20T09:23:27.033Z,1.50
2022-09-20T09:25:56.334Z,1.40
2022-09-20T09:28:26.731Z,1.40
2022-09-20T09:31:14.514Z,1.30
2022-09-20T09:33:45.409Z,0.95
2022-09-20T09:36:16.231Z,1.48
2022-09-20T09:38:46.199Z,1.75
2022-09-20T09:41:26.584Z,1.05
2022-09-20T09:44:06.693Z,1.33
2022-09-20T09:46:37.942Z,0.90
2022-09-20T09:49:12.855Z,1.33
2022-09-20T09:51:43.355Z,1.05
2022-09-20T09:54:19.790Z,0.90
2022-09-20T09:57:00.195Z,1.10
2022-09-20T09:59:42.707Z,1.10
2022-09-20T10:02:30.296Z,0.90
2022-09-20T10:05:05.205Z,1.33
2022-09-20T10:07:41.387Z,1.15
2022-09-20T10:10:25.057Z,0.65
2022-09-20T10:13:08.806Z,0.70
2022-09-20T10:15:46.750Z,1.05
2022-09-20T10:18:30.158Z,0.77
2022-09-20T10:24:08.823Z,0.90
2022-09-20T10:26:52.029Z,1.05
2022-09-20T10:29:28.991Z,0.98
2022-09-20T10:32:13.866Z,0.60
2022-09-20T10:35:03.115Z,0.95
2022-09-20T10:37:49.394Z,0.70
2022-09-20T10:40:26.145Z,0.57
2022-09-20T10:43:15.895Z,0.60
2022-09-20T10:46:20.540Z,0.80
2022-09-20T10:48:48.500Z,0.85
2022-09-20T10:51:28.626Z,0.70
2022-09-20T10:54:07.098Z,0.57
2022-09-20T10:56:38.509Z,0.73
2022-09-20T10:59:27.191Z,0.55
2022-09-20T11:02:08.360Z,0.32
2022-09-20T11:04:54.863Z,0.88
2022-09-20T11:07:35.509Z,1.05
2022-09-20T11:10:13.421Z,0.60
2022-09-20T11:12:45.800Z,0.63
2022-09-20T11:15:19.695Z,0.93
2022-09-20T11:17:54.763Z,0.52
2022-09-20T11:20:28.234Z,0.52
2022-09-20T11:23:03.629Z,0.50
2022-09-20T11:25:38.504Z,1.48
2022-09-20T11:28:15.784Z,0.50
2022-09-20T11:30:54.466Z,0.50
2022-09-20T11:33:28.013Z,0.50
2022-09-20T11:36:00.407Z,0.50
2022-09-20T11:38:36.233Z,0.70
2022-09-20T11:41:09.940Z,0.50
2022-09-20T11:43:42.713Z,0.60
2022-09-20T11:46:13.927Z,0.43
2022-09-20T11:48:46.968Z,0.70
2022-09-20T11:51:46.308Z,0.52
2022-09-20T11:54:36.945Z,0.45
2022-09-20T11:57:08.028Z,0.60
2022-09-20T11:59:38.563Z,0.50
2022-09-20T12:02:19.131Z,0.40
2022-09-20T12:04:53.204Z,0.60
2022-09-20T12:07:25.516Z,0.50
2022-09-20T12:09:59.089Z,0.30
2022-09-20T12:12:37.535Z,0.60
2022-09-20T12:15:08.877Z,0.50
2022-09-20T12:18:15.521Z,0.40
2022-09-20T12:21:16.026Z,0.40
2022-09-20T12:24:22.806Z,0.60
2022-09-20T12:26:59.982Z,0.80
2022-09-20T12:30:03.729Z,0.68
2022-09-20T12:32:51.922Z,0.57
2022-09-20T12:35:57.717Z,0.57
2022-09-20T12:38:48.432Z,0.90
2022-09-20T12:41:27.975Z,1.00
2022-09-20T12:44:03.090Z,0.90
2022-09-20T12:46:35.580Z,0.93
2022-09-20T12:50:03.209Z,1.10
2022-09-20T12:53:00.609Z,0.77
2022-09-20T12:55:38.401Z,0.88
2022-09-20T12:58:17.909Z,0.90
2022-09-20T13:00:50.705Z,1.00
2022-09-20T13:03:29.864Z,0.75
2022-09-20T13:06:24.195Z,0.55
2022-09-20T13:08:57.020Z,1.33
2022-09-20T13:11:29.360Z,2.28
2022-09-20T13:13:59.842Z,0.70
2022-09-20T13:16:34.483Z,0.70
2022-09-20T13:19:08.991Z,0.70
2022-09-20T13:21:40.935Z,1.13
2022-09-20T13:24:13.468Z,0.70
2022-09-20T13:26:45.613Z,0.70
2022-09-20T13:29:26.911Z,0.85
2022-09-20T13:31:57.395Z,0.65
2022-09-20T13:34:26.891Z,0.43
2022-09-20T13:36:58.386Z,0.65
2022-09-20T13:39:36.210Z,0.75
2022-09-20T13:42:11.474Z,0.50
2022-09-20T13:44:40.654Z,0.70
2022-09-20T13:47:25.475Z,0.90
2022-09-20T13:49:53.906Z,0.88
2022-09-20T13:52:25.958Z,0.85
2022-09-20T13:54:55.170Z,0.82
2022-09-20T13:57:27.598Z,1.10
2022-09-20T13:59:57.999Z,1.30
2022-09-20T14:02:30.462Z,0.80
2022-09-20T14:05:01.594Z,2.20
2022-09-20T14:07:31.086Z,2.80
2022-09-20T14:10:00.420Z,1.50
2022-09-20T14:12:29.872Z,0.80
2022-09-20T14:14:59.538Z,0.93
2022-09-20T14:17:33.465Z,1.40
2022-09-20T14:20:01.905Z,1.33
2022-09-20T14:22:30.690Z,0.60
2022-09-20T14:25:02.007Z,0.50
2022-09-20T14:27:31.580Z,0.88
2022-09-20T14:30:00.229Z,1.13
2022-09-20T14:32:45.771Z,0.75
2022-09-20T14:35:18.095Z,0.68
2022-09-20T14:37:49.611Z,0.88
2022-09-20T14:40:25.070Z,0.70
2022-09-20T14:42:56.733Z,0.90
2022-09-20T14:45:31.739Z,1.33
2022-09-20T14:48:10.309Z,1.25
2022-09-20T14:50:40.958Z,0.90
2022-09-20T14:53:26.642Z,0.70
2022-09-20T14:56:09.071Z,0.77
2022-09-20T14:59:05.528Z,0.82
2022-09-20T15:01:34.473Z,0.80
2022-09-20T15:04:09.931Z,0.70
2022-09-20T15:06:39.426Z,0.70
2022-09-20T15:09:07.926Z,0.80
2022-09-20T15:11:35.992Z,0.85
2022-09-20T15:14:04.291Z,0.80
2022-09-20T15:16:33.609Z,0.60
2022-09-20T15:19:01.788Z,0.50
2022-09-20T15:21:33.553Z,0.75
2022-09-20T15:24:01.853Z,0.50
2022-09-20T15:26:33.027Z,1.08
2022-09-20T15:29:01.166Z,0.68
2022-09-20T15:31:29.331Z,0.80
2022-09-20T15:33:57.495Z,0.55
2022-09-20T15:36:31.774Z,0.60
2022-09-20T15:39:01.618Z,0.70
2022-09-20T15:41:31.430Z,0.68
2022-09-20T15:43:59.653Z,0.90
2022-09-20T15:46:27.913Z,0.68
2022-09-20T15:48:56.531Z,0.52
2022-09-20T15:51:24.639Z,0.50
2022-09-20T15:53:58.997Z,0.40
2022-09-20T15:56:30.570Z,1.17
2022-09-20T15:59:00.964Z,1.00
2022-09-20T16:01:31.731Z,0.50
2022-09-20T16:04:00.578Z,1.05
2022-09-20T16:06:28.710Z,0.70
2022-09-20T16:08:57.258Z,0.80
2022-09-20T16:11:27.867Z,0.57
2022-09-20T16:13:58.549Z,0.50
2022-09-20T16:16:28.465Z,0.52
2022-09-20T16:19:14.455Z,0.55
2022-09-20T16:21:44.002Z,0.50
2022-09-20T16:24:13.504Z,0.47
2022-09-20T16:26:41.757Z,0.50
2022-09-20T16:29:12.383Z,0.82
2022-09-20T16:31:42.863Z,0.77
2022-09-20T16:34:14.311Z,0.60
2022-09-20T16:36:43.507Z,0.50
2022-09-20T16:39:12.220Z,0.70
2022-09-20T16:41:40.649Z,0.60
2022-09-20T16:44:10.756Z,0.50
2022-09-20T16:46:38.869Z,0.65
2022-09-20T16:49:09.484Z,0.60
2022-09-20T16:51:40.183Z,0.70
2022-09-20T16:54:11.681Z,0.60
2022-09-20T16:56:41.074Z,0.65
2022-09-20T16:59:10.915Z,0.70
2022-09-20T17:01:40.152Z,0.90
2022-09-20T17:04:09.414Z,0.63
2022-09-20T17:06:39.126Z,0.50
2022-09-20T17:09:08.298Z,0.60
2022-09-20T17:11:38.495Z,0.60
2022-09-20T17:14:07.374Z,0.63
2022-09-20T17:16:38.515Z,0.82
2022-09-20T17:19:11.278Z,1.02
2022-09-20T17:21:43.549Z,1.10
2022-09-20T17:24:11.855Z,1.50
2022-09-20T17:26:43.727Z,1.20
2022-09-20T17:29:14.047Z,0.80
2022-09-20T17:31:50.072Z,0.95
2022-09-20T17:34:22.365Z,0.85
2022-09-20T17:36:51.093Z,0.98
2022-09-20T17:39:19.652Z,1.00
2022-09-20T17:41:49.519Z,1.20
2022-09-20T17:44:18.095Z,1.10
2022-09-20T17:46:49.641Z,1.30
2022-09-20T17:49:19.739Z,3.40
2022-09-20T17:51:50.659Z,1.58
2022-09-20T17:54:19.383Z,2.40
2022-09-20T17:56:49.440Z,1.45
2022-09-20T17:59:19.439Z,0.80
2022-09-20T18:01:50.570Z,1.30
2022-09-20T18:04:20.724Z,1.20
2022-09-20T18:06:50.141Z,1.15
2022-09-20T18:09:19.649Z,4.57
2022-09-20T18:11:50.020Z,2.42
2022-09-20T18:14:20.045Z,1.42
2022-09-20T18:16:52.186Z,0.90
2022-09-20T18:19:22.763Z,0.80
2022-09-20T18:21:51.438Z,0.90
2022-09-20T18:24:19.730Z,0.98
2022-09-20T18:26:47.852Z,1.13
2022-09-20T18:29:18.343Z,3.13
2022-09-20T18:31:52.059Z,2.10
2022-09-20T18:34:22.324Z,2.08
2022-09-20T18:36:53.707Z,1.95
2022-09-20T18:39:23.260Z,1.42
2022-09-20T18:41:53.142Z,1.20
2022-09-20T18:44:22.425Z,1.40
2022-09-20T18:46:53.496Z,1.27
2022-09-20T18:49:22.577Z,0.93
2022-09-20T18:51:51.122Z,1.65
2022-09-20T18:54:19.779Z,0.98
2022-09-20T18:56:50.363Z,3.42
2022-09-20T18:59:20.369Z,3.75
2022-09-20T19:02:13.474Z,3.40
2022-09-20T19:05:17.533Z,3.33
2022-09-20T19:10:40.220Z,2.92
2022-09-20T19:13:22.071Z,2.00
2022-09-20T19:16:03.362Z,1.63
2022-09-20T19:19:04.109Z,1.55
2022-09-20T19:21:43.371Z,2.33
2022-09-20T19:24:23.476Z,3.35
2022-09-20T19:26:52.205Z,2.45
2022-09-20T19:29:22.062Z,1.80
2022-09-20T19:31:51.845Z,1.73
2022-09-20T19:34:22.312Z,1.45
2022-09-20T19:37:08.283Z,2.17
2022-09-20T19:39:52.582Z,1.27
2022-09-20T19:42:32.039Z,1.58
2022-09-20T19:45:09.267Z,1.52
2022-09-20T19:47:48.554Z,1.00
2022-09-20T19:50:27.975Z,1.20
2022-09-20T19:52:58.233Z,2.95
2022-09-20T19:55:27.040Z,1.20
2022-09-20T19:57:55.794Z,0.90
2022-09-20T20:00:24.659Z,1.00
2022-09-20T20:02:54.070Z,1.00
2022-09-20T20:05:25.612Z,1.08
2022-09-20T20:08:06.433Z,1.05
2022-09-20T20:10:41.007Z,1.20
2022-09-20T20:13:30.764Z,1.08
2022-09-20T20:16:03.319Z,1.25
2022-09-20T20:18:39.686Z,0.93
2022-09-20T20:21:18.178Z,1.30
2022-09-20T20:24:00.693Z,1.00
2022-09-20T20:26:28.971Z,1.23
2022-09-20T20:28:57.161Z,1.38
2022-09-20T20:31:25.416Z,1.83
2022-09-20T20:33:54.726Z,1.70
2022-09-20T20:36:23.008Z,1.50
2022-09-20T20:38:53.155Z,1.10
2022-09-20T20:41:23.608Z,1.10
2022-09-20T20:43:56.295Z,1.75
2022-09-20T20:46:25.161Z,1.67
2022-09-20T20:48:53.361Z,1.42
2022-09-20T20:51:23.270Z,1.25
2022-09-20T20:53:54.566Z,1.33
2022-09-20T20:56:25.730Z,1.40
2022-09-20T20:58:54.445Z,1.20
2022-09-20T21:01:24.299Z,1.55
2022-09-20T21:03:54.154Z,1.70
2022-09-20T21:06:24.755Z,1.45
2022-09-20T21:08:54.764Z,1.40
2022-09-20T21:11:24.971Z,1.52
2022-09-20T21:13:53.391Z,1.50
2022-09-20T21:16:23.163Z,1.63
2022-09-20T21:18:51.899Z,1.80
2022-09-20T21:21:21.716Z,1.60
2022-09-20T21:23:51.234Z,1.75
2022-09-20T21:26:21.639Z,1.50
2022-09-20T21:28:52.874Z,1.77
2022-09-20T21:31:22.395Z,1.67
2022-09-20T21:33:51.092Z,1.27
2022-09-20T21:36:20.816Z,1.63
2022-09-20T21:38:49.003Z,1.42
2022-09-20T21:41:18.894Z,1.77
2022-09-20T21:43:48.993Z,2.10
2022-09-20T21:46:18.998Z,2.05
2022-09-20T21:48:48.603Z,2.08
2022-09-20T21:51:20.010Z,2.03
2022-09-20T21:53:48.392Z,1.90
2022-09-20T21:56:18.390Z,2.05
2022-09-20T21:58:48.465Z,1.52
2022-09-20T22:01:18.492Z,1.88
2022-09-20T22:03:48.106Z,1.60
2022-09-20T22:06:18.416Z,1.45
2022-09-20T22:08:48.705Z,1.77
2022-09-20T22:11:17.658Z,1.77
2022-09-20T22:13:47.527Z,1.30
2022-09-20T22:16:18.875Z,1.75
2022-09-20T22:18:47.661Z,1.58
2022-09-20T22:21:18.230Z,1.80
2022-09-20T22:23:49.372Z,1.70
2022-09-20T22:26:20.118Z,1.60
2022-09-20T22:28:49.700Z,1.60
2022-09-20T22:31:21.326Z,1.80
2022-09-20T22:33:51.452Z,1.88
2022-09-20T22:36:21.487Z,1.77
2022-09-20T22:38:49.878Z,1.90
2022-09-20T22:41:19.951Z,2.58
2022-09-20T22:43:48.798Z,1.95
2022-09-20T22:46:20.516Z,1.70
2022-09-20T22:48:48.867Z,2.20
2022-09-20T22:51:19.393Z,1.92
2022-09-20T22:53:48.878Z,1.80
2022-09-20T22:56:21.066Z,2.10
2022-09-20T22:58:51.633Z,1.50
2022-09-20T23:01:22.746Z,1.80
2022-09-20T23:03:55.694Z,1.80
2022-09-20T23:06:26.354Z,1.55
2022-09-20T23:08:56.507Z,2.13
2022-09-20T23:11:25.260Z,1.80
2022-09-20T23:13:55.723Z,2.03
2022-09-20T23:16:28.192Z,2.30
2022-09-20T23:18:59.270Z,1.70
2022-09-20T23:21:27.822Z,1.60
2022-09-20T23:23:57.333Z,2.72
2022-09-20T23:26:26.438Z,2.40
2022-09-20T23:28:55.874Z,1.95
2022-09-20T23:31:26.414Z,2.25
2022-09-20T23:33:56.676Z,2.22
2022-09-20T23:36:25.619Z,2.03
2022-09-20T23:38:53.878Z,2.25
2022-09-20T23:41:24.327Z,2.78
2022-09-20T23:43:52.828Z,2.40
2022-09-20T23:46:22.833Z,1.95
2022-09-20T23:48:52.847Z,2.10
2022-09-20T23:51:22.785Z,2.08
2022-09-20T23:53:51.614Z,2.17
2022-09-20T23:56:20.143Z,2.08
2022-09-20T23:58:48.842Z,2.50
